Time;durP1;ratioP1;P1;durP2;ratioP2;P2;SDS_P1;SDS_P2;PMS_P1;PMS_P2;Temp;Humidity;BMP_temperature;BMP_pressure;BME280_temperature;BME280_humidity;BME280_pressure;Samples;Min_cycle;Max_cycle;Signal;HPM_P1;HPM_P2
2023/11/13 00:00:16;;;;;;;9.68;5.55;;;7.60;99.90;;;;;;4176352;28;20164;-73
2023/11/13 00:02:18;;;;;;;11.88;6.15;;;7.60;99.90;;;;;;4179892;28;20445;-73
2023/11/13 00:04:19;;;;;;;7.72;5.07;;;7.60;99.90;;;;;;4177982;28;20029;-73
2023/11/13 00:06:20;;;;;;;12.43;5.57;;;7.60;99.90;;;;;;4176240;28;20510;-73
2023/11/13 00:08:21;;;;;;;12.32;6.35;;;7.50;99.90;;;;;;4179049;28;20037;-72
2023/11/13 00:10:22;;;;;;;10.05;6.00;;;7.50;99.90;;;;;;4177040;28;20040;-71
2023/11/13 00:12:22;;;;;;;10.90;5.80;;;7.50;99.90;;;;;;4179800;28;20477;-72
2023/11/13 00:14:23;;;;;;;13.23;6.60;;;7.50;99.90;;;;;;4175916;28;20108;-71
2023/11/13 00:16:24;;;;;;;11.00;6.38;;;7.50;99.90;;;;;;4177644;28;20103;-71
2023/11/13 00:18:25;;;;;;;12.60;6.20;;;7.50;99.90;;;;;;4179152;28;20055;-72
2023/11/13 00:20:26;;;;;;;10.93;5.75;;;7.50;99.90;;;;;;4176312;28;20041;-72
2023/11/13 00:22:26;;;;;;;11.43;5.80;;;7.50;99.90;;;;;;4179407;28;20052;-72
2023/11/13 00:24:27;;;;;;;9.73;5.90;;;7.50;99.90;;;;;;4179025;28;20033;-72
2023/11/13 00:26:28;;;;;;;8.93;5.43;;;7.40;99.90;;;;;;4177739;28;20029;-72
2023/11/13 00:28:29;;;;;;;9.65;5.80;;;7.40;99.90;;;;;;4179153;28;20029;-73
2023/11/13 00:30:30;;;;;;;9.25;5.63;;;7.40;99.90;;;;;;4167137;28;20072;-72
2023/11/13 00:32:31;;;;;;;9.68;5.28;;;7.40;99.90;;;;;;4161300;28;20030;-73
2023/11/13 00:34:32;;;;;;;11.38;5.72;;;7.40;99.90;;;;;;4165876;28;20106;-73
2023/11/13 00:36:32;;;;;;;10.23;5.70;;;7.40;99.90;;;;;;4177444;28;20630;-72
2023/11/13 00:38:33;;;;;;;15.15;5.97;;;7.50;99.90;;;;;;4179164;28;20029;-73
2023/11/13 00:40:34;;;;;;;9.13;5.15;;;7.50;99.90;;;;;;4163712;28;20614;-72
2023/11/13 00:42:35;;;;;;;12.50;5.55;;;7.50;99.90;;;;;;4162485;28;20025;-72
2023/11/13 00:44:36;;;;;;;8.82;5.20;;;7.50;99.90;;;;;;4164690;28;20546;-73
2023/11/13 00:46:36;;;;;;;11.63;5.32;;;7.60;99.90;;;;;;4177020;28;20040;-73
2023/11/13 00:48:40;;;;;;;9.65;5.28;;;7.50;99.90;;;;;;4179359;28;20045;-71
2023/11/13 00:50:40;;;;;;;10.55;6.10;;;7.50;99.90;;;;;;4175832;28;20485;-71
2023/11/13 00:52:41;;;;;;;9.57;5.32;;;7.60;99.90;;;;;;4178900;28;20065;-72
2023/11/13 00:54:42;;;;;;;11.57;5.93;;;7.50;99.90;;;;;;4178325;28;20500;-73
2023/11/13 00:56:43;;;;;;;11.60;6.07;;;7.50;99.90;;;;;;4176753;28;20041;-71
2023/11/13 00:58:45;;;;;;;12.38;6.18;;;7.50;99.90;;;;;;4178665;28;20029;-71
2023/11/13 01:00:46;;;;;;;14.48;6.57;;;7.50;99.90;;;;;;4163006;28;20120;-72
2023/11/13 01:02:47;;;;;;;9.63;5.47;;;7.50;99.90;;;;;;4162202;28;20061;-72
2023/11/13 01:04:48;;;;;;;10.07;5.13;;;7.60;99.90;;;;;;4163627;28;20578;-72
2023/11/13 01:06:54;;;;;;;8.43;5.00;;;7.50;99.90;;;;;;4176703;28;20466;-71
2023/11/13 01:08:56;;;;;;;11.60;5.25;;;7.60;99.90;;;;;;4175341;28;20037;-71
2023/11/13 01:10:57;;;;;;;11.77;6.20;;;7.60;99.90;;;;;;4173466;28;20087;-71
2023/11/13 01:12:58;;;;;;;8.90;5.43;;;7.60;99.90;;;;;;4178739;28;20370;-71
2023/11/13 01:14:59;;;;;;;10.15;5.35;;;7.60;99.90;;;;;;4176660;28;20080;-72
2023/11/13 01:17:00;;;;;;;10.10;5.53;;;7.70;99.90;;;;;;4176509;28;20512;-71
2023/11/13 01:19:00;;;;;;;13.73;5.60;;;7.70;99.90;;;;;;4177577;28;20128;-71
2023/11/13 01:21:01;;;;;;;9.63;5.50;;;7.70;99.90;;;;;;4175251;28;20528;-71
2023/11/13 01:23:02;;;;;;;10.43;5.45;;;7.70;99.90;;;;;;4178100;28;20049;-71
2023/11/13 01:25:03;;;;;;;9.95;5.15;;;7.70;99.90;;;;;;4173024;28;20477;-73
2023/11/13 01:27:04;;;;;;;8.25;4.90;;;7.60;99.90;;;;;;4159585;28;20049;-71
2023/11/13 01:29:05;;;;;;;10.38;5.63;;;7.60;99.90;;;;;;4162805;28;20041;-72
2023/11/13 01:31:05;;;;;;;7.57;4.70;;;7.60;99.90;;;;;;4169331;28;20037;-72
2023/11/13 01:33:06;;;;;;;7.38;4.72;;;7.60;99.90;;;;;;4177894;28;20040;-72
2023/11/13 01:35:07;;;;;;;9.35;5.53;;;7.60;99.90;;;;;;4177152;28;20051;-72
2023/11/13 01:37:08;;;;;;;8.23;4.93;;;7.70;99.90;;;;;;4175378;28;20088;-71
2023/11/13 01:39:09;;;;;;;10.95;4.88;;;7.70;99.90;;;;;;4176634;28;20540;-71
2023/11/13 01:41:09;;;;;;;7.75;4.78;;;7.70;99.90;;;;;;4165163;28;20171;-71
2023/11/13 01:43:18;;;;;;;7.18;4.35;;;7.70;99.90;;;;;;4178113;28;20115;-71
2023/11/13 01:45:19;;;;;;;9.82;5.25;;;7.70;99.90;;;;;;4174491;28;20424;-72
2023/11/13 01:47:20;;;;;;;10.38;5.60;;;7.70;99.90;;;;;;4176644;28;20037;-71
2023/11/13 01:49:21;;;;;;;9.77;4.82;;;7.70;99.90;;;;;;4174181;28;20029;-71
2023/11/13 01:51:24;;;;;;;11.18;4.90;;;7.70;99.90;;;;;;4170774;28;20057;-70
2023/11/13 01:53:26;;;;;;;10.70;5.07;;;7.70;99.90;;;;;;4177520;28;20512;-71
2023/11/13 01:55:26;;;;;;;9.52;4.57;;;7.70;99.90;;;;;;4171541;28;20055;-71
2023/11/13 01:57:29;;;;;;;6.78;3.78;;;7.70;99.90;;;;;;4177169;28;20025;-68
2023/11/13 01:59:30;;;;;;;6.97;4.28;;;7.70;99.90;;;;;;4172954;28;20036;-68
2023/11/13 02:01:31;;;;;;;10.02;4.22;;;7.70;99.90;;;;;;4169369;28;20478;-68
2023/11/13 02:03:34;;;;;;;9.32;4.68;;;7.70;99.90;;;;;;4177230;28;20071;-68
2023/11/13 02:05:34;;;;;;;;;;;7.70;99.90;;;;;;4173863;28;20052;-68
2023/11/13 02:07:36;;;;;;;7.68;4.35;;;7.70;99.90;;;;;;4176512;28;19913;-68
2023/11/13 02:09:36;;;;;;;9.43;4.40;;;7.70;99.90;;;;;;4173688;28;20025;-67
2023/11/13 02:11:37;;;;;;;7.25;4.13;;;7.70;99.90;;;;;;4175147;28;20120;-68
2023/11/13 02:13:38;;;;;;;6.72;3.97;;;7.70;99.90;;;;;;4177076;28;20071;-68
2023/11/13 02:15:40;;;;;;;9.13;4.40;;;7.80;99.90;;;;;;4175667;28;20044;-68
2023/11/13 02:18:03;;;;;;;7.43;4.30;;;7.80;99.90;;;;;;4191217;28;20043;-68
2023/11/13 02:20:04;;;;;;;6.43;4.15;;;7.80;99.90;;;;;;4169707;28;20037;-68
2023/11/13 02:22:05;;;;;;;6.63;4.30;;;7.80;99.90;;;;;;4175308;28;20675;-68
2023/11/13 02:24:07;;;;;;;9.45;5.60;;;7.80;99.90;;;;;;4177065;28;20116;-68
2023/11/13 02:26:16;;;;;;;8.52;4.50;;;7.80;99.90;;;;;;4175935;28;20040;-68
2023/11/13 02:28:17;;;;;;;9.13;4.75;;;7.80;99.90;;;;;;4174959;28;20369;-68
2023/11/13 02:30:17;;;;;;;7.47;4.75;;;7.80;99.90;;;;;;4171442;28;20163;-68
2023/11/13 02:32:19;;;;;;;7.32;4.50;;;7.80;99.90;;;;;;4176521;28;20040;-67
2023/11/13 02:34:20;;;;;;;9.38;3.83;;;7.80;99.90;;;;;;4176646;28;20115;-68
2023/11/13 02:36:21;;;;;;;7.75;4.35;;;7.80;99.90;;;;;;4175227;28;20476;-68
2023/11/13 02:38:21;;;;;;;8.65;4.32;;;7.80;99.90;;;;;;4176316;28;20056;-67
2023/11/13 02:40:22;;;;;;;9.98;4.60;;;7.80;99.90;;;;;;4171478;28;20045;-69
2023/11/13 02:42:23;;;;;;;6.78;4.60;;;7.80;99.90;;;;;;4176583;28;20037;-68
2023/11/13 02:44:23;;;;;;;8.68;4.57;;;7.80;99.90;;;;;;4176749;28;20472;-68
2023/11/13 02:46:24;;;;;;;8.57;4.72;;;7.80;99.90;;;;;;4175463;28;20032;-68
2023/11/13 02:48:25;;;;;;;6.85;4.20;;;7.80;99.90;;;;;;4176077;28;20393;-68
2023/11/13 02:50:25;;;;;;;8.15;4.25;;;7.80;99.90;;;;;;4171952;28;20405;-68
2023/11/13 02:52:26;;;;;;;8.80;4.75;;;7.80;99.90;;;;;;4168042;28;20037;-68
2023/11/13 02:54:26;;;;;;;7.68;4.43;;;7.80;99.90;;;;;;4176818;28;20179;-68
2023/11/13 02:56:28;;;;;;;7.75;4.18;;;7.80;99.90;;;;;;4190455;28;20484;-68
2023/11/13 02:58:28;;;;;;;8.18;4.15;;;7.90;99.90;;;;;;4177162;28;20033;-68
2023/11/13 03:00:29;;;;;;;7.65;4.07;;;7.80;99.90;;;;;;4172839;28;20554;-68
2023/11/13 03:02:29;;;;;;;7.68;4.18;;;7.90;99.90;;;;;;4176176;28;20045;-68
2023/11/13 03:04:30;;;;;;;7.60;4.03;;;7.90;99.90;;;;;;4175457;28;20037;-68
2023/11/13 03:06:31;;;;;;;8.60;4.60;;;7.90;99.90;;;;;;4174684;28;20044;-68
2023/11/13 03:08:32;;;;;;;13.07;4.43;;;7.90;99.90;;;;;;4176831;28;20071;-72
2023/11/13 03:10:32;;;;;;;8.85;4.50;;;7.90;99.90;;;;;;4171475;28;20556;-73
2023/11/13 03:12:33;;;;;;;8.48;4.75;;;7.90;99.90;;;;;;4176019;28;20389;-73
2023/11/13 03:14:34;;;;;;;10.48;4.40;;;7.90;99.90;;;;;;4176260;28;20417;-72
2023/11/13 03:16:34;;;;;;;7.22;3.72;;;7.90;99.90;;;;;;4174710;28;20047;-73
2023/11/13 03:18:35;;;;;;;9.60;4.60;;;8.00;99.90;;;;;;4175487;28;20037;-73
2023/11/13 03:20:36;;;;;;;6.72;4.53;;;8.00;99.90;;;;;;4170642;28;20115;-73
2023/11/13 03:22:36;;;;;;;7.00;4.05;;;8.00;99.90;;;;;;4174724;28;20078;-73
2023/11/13 03:24:37;;;;;;;6.72;4.20;;;8.00;99.90;;;;;;4176116;28;20565;-73
2023/11/13 03:26:37;;;;;;;9.55;4.15;;;8.00;99.90;;;;;;4175349;28;20079;-73
2023/11/13 03:28:38;;;;;;;6.53;4.10;;;8.10;99.90;;;;;;4176923;28;20045;-74
2023/11/13 03:30:39;;;;;;;9.73;4.40;;;8.00;99.90;;;;;;4174688;28;20045;-73
2023/11/13 03:32:42;;;;;;;8.55;4.47;;;8.00;99.90;;;;;;4176143;28;20071;-73
2023/11/13 03:34:44;;;;;;;5.80;3.85;;;8.10;99.90;;;;;;4175309;28;21453;-73
2023/11/13 03:36:45;;;;;;;7.13;4.15;;;8.00;99.90;;;;;;4169189;28;20045;-73
2023/11/13 03:38:45;;;;;;;6.82;3.63;;;8.00;99.90;;;;;;4174250;28;20397;-73
2023/11/13 03:40:46;;;;;;;6.88;4.15;;;8.00;99.90;;;;;;4159586;28;20041;-73
2023/11/13 03:42:46;;;;;;;5.40;3.42;;;8.10;99.90;;;;;;4170907;28;20435;-74
2023/11/13 03:44:47;;;;;;;7.38;3.65;;;8.10;99.90;;;;;;4174889;28;20144;-73
2023/11/13 03:46:48;;;;;;;10.77;4.22;;;8.10;99.90;;;;;;4171413;28;20032;-73
2023/11/13 03:48:48;;;;;;;6.57;3.72;;;8.10;99.90;;;;;;4175027;28;20036;-73
2023/11/13 03:50:49;;;;;;;5.20;3.72;;;8.10;99.90;;;;;;4186286;28;20041;-73
2023/11/13 03:52:50;;;;;;;6.97;3.47;;;8.20;99.90;;;;;;4174392;28;20535;-74
2023/11/13 03:54:50;;;;;;;5.60;3.47;;;8.10;99.90;;;;;;4174460;28;20082;-73
2023/11/13 03:56:51;;;;;;;11.88;4.13;;;8.20;99.90;;;;;;4171306;28;20041;-73
2023/11/13 03:58:52;;;;;;;7.20;3.88;;;8.20;99.90;;;;;;4172218;28;20037;-74
2023/11/13 04:00:53;;;;;;;6.20;3.50;;;8.20;99.90;;;;;;4171992;28;20110;-74
2023/11/13 04:02:53;;;;;;;5.10;3.40;;;8.20;99.90;;;;;;4175663;28;20045;-73
2023/11/13 04:04:54;;;;;;;7.80;3.92;;;8.20;99.90;;;;;;4174418;28;20473;-74
2023/11/13 04:06:54;;;;;;;6.38;3.85;;;8.20;99.90;;;;;;4174653;28;20040;-74
2023/11/13 04:08:55;;;;;;;5.38;3.92;;;8.20;99.90;;;;;;4174862;28;20036;-76
2023/11/13 04:10:56;;;;;;;5.68;3.70;;;8.20;99.90;;;;;;4171653;28;20378;-75
2023/11/13 04:12:56;;;;;;;5.57;3.50;;;8.20;99.90;;;;;;4175500;28;20481;-75
2023/11/13 04:14:58;;;;;;;8.45;4.40;;;8.20;99.90;;;;;;4176009;28;20086;-75
2023/11/13 04:16:59;;;;;;;7.57;4.45;;;8.20;99.90;;;;;;4174570;28;20477;-76
2023/11/13 04:19:00;;;;;;;6.55;4.35;;;8.20;99.90;;;;;;4175745;28;20112;-67
2023/11/13 04:21:00;;;;;;;8.55;5.05;;;8.20;99.90;;;;;;4174559;28;20722;-67
2023/11/13 04:23:01;;;;;;;7.80;4.45;;;8.20;99.90;;;;;;4175475;28;20037;-67
2023/11/13 04:25:02;;;;;;;6.07;3.42;;;8.20;99.90;;;;;;4176399;28;20370;-70
2023/11/13 04:27:03;;;;;;;5.47;3.67;;;8.20;99.90;;;;;;4175235;28;20179;-67
2023/11/13 04:29:03;;;;;;;6.82;4.00;;;8.20;99.90;;;;;;4175425;28;20037;-67
2023/11/13 04:31:04;;;;;;;8.43;4.47;;;8.20;99.90;;;;;;4175256;28;20033;-68
2023/11/13 04:33:05;;;;;;;8.35;4.60;;;8.20;99.90;;;;;;4178006;28;20056;-68
2023/11/13 04:35:06;;;;;;;5.88;4.15;;;8.20;99.90;;;;;;4178267;28;20037;-68
2023/11/13 04:37:08;;;;;;;5.93;4.18;;;8.20;99.90;;;;;;4175647;28;20482;-68
2023/11/13 04:39:09;;;;;;;6.80;4.47;;;8.20;99.90;;;;;;4178241;28;20055;-68
2023/11/13 04:41:12;;;;;;;5.93;4.40;;;8.10;99.90;;;;;;4178052;28;20158;-67
2023/11/13 04:43:13;;;;;;;6.88;4.30;;;8.10;99.90;;;;;;4178623;28;20086;-67
2023/11/13 04:45:13;;;;;;;9.13;4.88;;;8.20;99.90;;;;;;4176491;28;20481;-67
2023/11/13 04:47:14;;;;;;;7.88;4.97;;;8.20;99.90;;;;;;4178024;28;20404;-67
2023/11/13 04:49:15;;;;;;;6.25;4.25;;;8.10;99.90;;;;;;4175787;28;20044;-67
2023/11/13 04:51:15;;;;;;;5.78;4.00;;;8.20;99.90;;;;;;4176564;28;20037;-67
2023/11/13 04:53:16;;;;;;;6.75;4.55;;;8.20;99.90;;;;;;4178011;28;20519;-67
2023/11/13 04:55:17;;;;;;;6.72;4.13;;;8.20;99.90;;;;;;4177412;28;20041;-67
2023/11/13 04:57:17;;;;;;;7.20;4.60;;;8.20;99.90;;;;;;4177824;28;20044;-67
2023/11/13 04:59:18;;;;;;;6.32;5.00;;;8.20;99.90;;;;;;4177082;28;20025;-67
2023/11/13 05:01:19;;;;;;;6.82;4.70;;;8.20;99.90;;;;;;4177274;28;20095;-67
2023/11/13 05:03:20;;;;;;;6.97;4.55;;;8.20;99.90;;;;;;4176461;28;20083;-67
2023/11/13 05:05:21;;;;;;;7.38;5.00;;;8.20;99.90;;;;;;4175648;28;20037;-67
2023/11/13 05:07:22;;;;;;;6.95;4.40;;;8.20;99.90;;;;;;4177227;28;20144;-67
2023/11/13 05:09:26;;;;;;;6.30;4.45;;;8.20;99.90;;;;;;4177017;28;20400;-67
2023/11/13 05:11:27;;;;;;;7.78;4.78;;;8.20;99.90;;;;;;4176961;28;20099;-68
2023/11/13 05:13:28;;;;;;;8.15;5.28;;;8.20;99.90;;;;;;4192693;28;20044;-68
2023/11/13 05:15:29;;;;;;;9.57;5.10;;;8.20;99.90;;;;;;4171443;28;20049;-68
2023/11/13 05:17:30;;;;;;;10.05;5.28;;;8.20;99.90;;;;;;4176574;28;20048;-68
2023/11/13 05:19:31;;;;;;;7.65;5.07;;;8.20;99.90;;;;;;4177044;28;20048;-67
2023/11/13 05:21:32;;;;;;;8.15;5.10;;;8.20;99.90;;;;;;4177087;28;20032;-67
2023/11/13 05:23:32;;;;;;;8.35;5.00;;;8.20;99.90;;;;;;4178359;28;20037;-67
2023/11/13 05:25:33;;;;;;;7.47;5.20;;;8.20;99.90;;;;;;4177773;28;20564;-67
2023/11/13 05:27:33;;;;;;;5.43;4.35;;;8.20;99.90;;;;;;4178676;28;20040;-69
2023/11/13 05:29:34;;;;;;;5.65;4.10;;;8.20;99.90;;;;;;4175914;28;20058;-75
2023/11/13 05:31:35;;;;;;;7.57;4.55;;;8.20;99.90;;;;;;4169973;28;20045;-76
2023/11/13 05:33:35;;;;;;;7.03;4.90;;;8.20;99.90;;;;;;4178137;28;20029;-75
2023/11/13 05:35:36;;;;;;;5.38;4.30;;;8.20;99.90;;;;;;4175124;28;20076;-75
2023/11/13 05:37:37;;;;;;;6.95;4.70;;;8.20;99.90;;;;;;4177341;28;20455;-75
2023/11/13 05:39:37;;;;;;;5.97;4.60;;;8.20;99.90;;;;;;4176700;28;20598;-76
2023/11/13 05:41:38;;;;;;;6.13;4.22;;;8.30;99.90;;;;;;4176574;28;20037;-75
2023/11/13 05:43:39;;;;;;;7.03;4.57;;;8.30;99.90;;;;;;4173947;28;20037;-76
2023/11/13 05:45:40;;;;;;;7.18;4.82;;;8.30;99.90;;;;;;4175744;28;20120;-76
2023/11/13 05:47:41;;;;;;;6.65;4.47;;;8.30;99.90;;;;;;4163076;28;20533;-76
2023/11/13 05:49:41;;;;;;;6.07;4.65;;;8.30;99.90;;;;;;4172423;28;20049;-76
2023/11/13 05:51:42;;;;;;;6.07;4.32;;;8.30;99.90;;;;;;4162415;28;20135;-76
2023/11/13 05:53:43;;;;;;;8.60;4.90;;;8.30;99.90;;;;;;4160321;28;20513;-76
2023/11/13 05:55:43;;;;;;;8.15;5.30;;;8.30;99.90;;;;;;4171688;28;20041;-76
2023/11/13 05:57:45;;;;;;;6.75;4.03;;;8.30;99.90;;;;;;4173464;28;20025;-75
2023/11/13 05:59:45;;;;;;;6.63;4.55;;;8.40;99.90;;;;;;4173621;28;20404;-75
2023/11/13 06:01:48;;;;;;;7.43;4.65;;;8.40;99.90;;;;;;4171538;28;20038;-76
2023/11/13 06:03:49;;;;;;;5.72;3.88;;;8.40;99.90;;;;;;4173488;28;20033;-75
2023/11/13 06:05:50;;;;;;;7.60;4.70;;;8.40;99.90;;;;;;4173489;28;20477;-75
2023/11/13 06:07:50;;;;;;;7.25;4.82;;;8.50;99.90;;;;;;4173624;28;20044;-75
2023/11/13 06:09:51;;;;;;;8.57;4.82;;;8.50;99.90;;;;;;4174198;28;20045;-75
2023/11/13 06:11:52;;;;;;;7.20;4.80;;;8.50;99.90;;;;;;4173146;28;20037;-75
2023/11/13 06:13:53;;;;;;;6.80;4.47;;;8.50;99.90;;;;;;4173610;28;20076;-76
2023/11/13 06:15:54;;;;;;;7.97;4.93;;;8.60;99.90;;;;;;4175620;28;20048;-76
2023/11/13 06:17:55;;;;;;;9.07;5.07;;;8.60;99.90;;;;;;4173830;28;20060;-76
2023/11/13 06:19:55;;;;;;;9.52;5.55;;;8.60;99.90;;;;;;4174834;28;20040;-76
2023/11/13 06:21:56;;;;;;;8.82;5.05;;;8.60;99.90;;;;;;4171120;28;20124;-75
2023/11/13 06:23:57;;;;;;;8.88;5.70;;;8.60;99.90;;;;;;4170207;28;20037;-75
2023/11/13 06:25:57;;;;;;;7.88;4.70;;;8.70;99.90;;;;;;4167105;28;20128;-73
2023/11/13 06:27:58;;;;;;;8.70;5.63;;;8.70;99.90;;;;;;4170738;28;20107;-72
2023/11/13 06:29:59;;;;;;;7.43;5.38;;;8.80;99.90;;;;;;4171250;28;20033;-72
2023/11/13 06:32:01;;;;;;;11.27;5.22;;;8.80;99.90;;;;;;4171088;28;20037;-74
2023/11/13 06:34:02;;;;;;;10.35;5.50;;;8.80;99.90;;;;;;4172366;28;20048;-74
2023/11/13 06:36:09;;;;;;;8.85;5.25;;;8.90;99.90;;;;;;4171946;28;20045;-74
2023/11/13 06:38:10;;;;;;;9.48;5.63;;;8.90;99.90;;;;;;4173543;28;20044;-74
2023/11/13 06:40:16;;;;;;;11.95;5.85;;;8.90;99.90;;;;;;4173273;28;20049;-75
2023/11/13 06:42:16;;;;;;;11.95;5.38;;;8.90;99.90;;;;;;4174262;28;20036;-75
2023/11/13 06:44:17;;;;;;;10.15;5.53;;;8.90;99.90;;;;;;4171114;28;20124;-74
2023/11/13 06:46:18;;;;;;;13.25;6.45;;;9.00;99.90;;;;;;4172734;28;20045;-74
2023/11/13 06:48:18;;;;;;;9.25;5.13;;;9.00;99.90;;;;;;4171234;28;20405;-69
2023/11/13 06:50:20;;;;;;;13.10;5.53;;;9.00;99.90;;;;;;4167487;28;20547;-70
2023/11/13 06:52:22;;;;;;;9.35;5.45;;;9.10;99.90;;;;;;4173959;28;20036;-69
2023/11/13 06:54:23;;;;;;;7.03;5.05;;;9.10;99.90;;;;;;4172466;28;20045;-69
2023/11/13 06:56:24;;;;;;;9.07;5.38;;;9.10;99.90;;;;;;4172286;28;20076;-70
2023/11/13 06:58:25;;;;;;;6.38;4.35;;;9.10;99.90;;;;;;4172525;28;20393;-69
2023/11/13 07:00:25;;;;;;;8.43;4.95;;;9.10;99.90;;;;;;4170009;28;20048;-70
2023/11/13 07:02:27;;;;;;;11.40;5.03;;;9.10;99.90;;;;;;4173926;28;20033;-69
2023/11/13 07:04:28;;;;;;;10.63;5.32;;;9.10;99.90;;;;;;4171762;28;20060;-70
2023/11/13 07:06:28;;;;;;;7.45;4.93;;;9.20;99.90;;;;;;4172790;28;20543;-70
2023/11/13 07:08:29;;;;;;;7.45;5.30;;;9.20;99.90;;;;;;4171595;28;20029;-70
2023/11/13 07:10:34;;;;;;;8.15;5.13;;;9.20;99.90;;;;;;4172613;28;20162;-70
2023/11/13 07:12:35;;;;;;;6.75;4.35;;;9.20;99.90;;;;;;4171653;28;20033;-69
2023/11/13 07:14:36;;;;;;;7.28;4.57;;;9.20;99.90;;;;;;4172394;28;20033;-69
2023/11/13 07:16:42;;;;;;;7.05;4.60;;;9.20;99.90;;;;;;4169998;28;20474;-69
2023/11/13 07:18:43;;;;;;;7.90;4.72;;;9.20;99.90;;;;;;4171334;28;20048;-69
2023/11/13 07:20:44;;;;;;;9.85;5.15;;;9.20;99.90;;;;;;4186443;28;20032;-69
2023/11/13 07:22:50;;;;;;;9.13;4.97;;;9.20;99.90;;;;;;4172851;28;20041;-69
2023/11/13 07:24:51;;;;;;;7.97;4.70;;;9.30;99.90;;;;;;4157273;28;20056;-69
2023/11/13 07:26:52;;;;;;;7.70;4.60;;;9.30;99.90;;;;;;4156507;28;20063;-69
2023/11/13 07:28:53;;;;;;;8.48;5.00;;;9.30;99.90;;;;;;4164509;28;20033;-69
2023/11/13 07:30:54;;;;;;;11.43;4.82;;;9.30;99.90;;;;;;4161711;28;20037;-69
2023/11/13 07:32:55;;;;;;;6.93;4.38;;;9.30;99.90;;;;;;4168433;28;20037;-69
2023/11/13 07:34:56;;;;;;;11.13;5.20;;;9.30;99.90;;;;;;4160613;28;20460;-69
2023/11/13 07:36:56;;;;;;;8.52;4.53;;;9.40;99.90;;;;;;4160827;28;20048;-69
2023/11/13 07:38:58;;;;;;;7.88;4.95;;;9.40;99.90;;;;;;4161029;28;20098;-71
2023/11/13 07:40:58;;;;;;;10.52;5.10;;;9.40;99.90;;;;;;4162487;28;20040;-70
2023/11/13 07:42:59;;;;;;;9.48;4.55;;;9.40;99.90;;;;;;4170811;28;20032;-70
2023/11/13 07:45:03;;;;;;;10.05;4.43;;;9.40;99.90;;;;;;4156857;28;20083;-69
2023/11/13 07:47:03;;;;;;;6.35;4.30;;;9.50;99.90;;;;;;4167764;28;20525;-69
2023/11/13 07:49:04;;;;;;;5.40;3.80;;;9.50;99.90;;;;;;4171294;28;20037;-66
2023/11/13 07:51:06;;;;;;;7.35;4.07;;;9.50;99.90;;;;;;4170093;28;20056;-66
2023/11/13 07:53:08;;;;;;;8.73;4.83;;;9.50;99.90;;;;;;4169604;28;20524;-65
2023/11/13 07:55:10;;;;;;;9.82;3.97;;;9.50;99.90;;;;;;4169055;28;20755;-66
2023/11/13 07:57:11;;;;;;;8.15;4.50;;;9.60;99.90;;;;;;4171069;28;20707;-65
2023/11/13 07:59:13;;;;;;;9.70;4.35;;;9.60;99.90;;;;;;4169481;28;20047;-65
2023/11/13 08:01:14;;;;;;;10.02;4.03;;;9.60;99.90;;;;;;4168805;28;20037;-66
2023/11/13 08:03:16;;;;;;;7.32;3.92;;;9.70;99.90;;;;;;4171001;28;20029;-65
2023/11/13 08:05:17;;;;;;;8.70;3.60;;;9.70;99.90;;;;;;4171604;28;20469;-66
2023/11/13 08:07:18;;;;;;;11.75;4.75;;;9.70;99.90;;;;;;4170581;28;20036;-65
2023/11/13 08:09:20;;;;;;;8.48;4.05;;;9.70;99.90;;;;;;4173969;28;20044;-65
2023/11/13 08:11:22;;;;;;;7.57;4.05;;;9.70;99.90;;;;;;4172747;28;20053;-65
2023/11/13 08:13:24;;;;;;;11.90;4.38;;;9.70;99.90;;;;;;4172546;28;20041;-65
2023/11/13 08:15:25;;;;;;;10.30;3.70;;;9.70;99.90;;;;;;4170731;28;20115;-65
2023/11/13 08:17:26;;;;;;;11.32;4.28;;;9.80;99.90;;;;;;4174358;28;20413;-65
2023/11/13 08:19:27;;;;;;;8.73;3.63;;;9.80;99.90;;;;;;4171051;28;20037;-66
2023/11/13 08:21:30;;;;;;;7.82;3.83;;;9.80;99.90;;;;;;4173572;28;20386;-66
2023/11/13 08:23:31;;;;;;;9.77;3.75;;;9.80;99.90;;;;;;4173937;28;20487;-66
2023/11/13 08:25:32;;;;;;;10.63;4.10;;;9.80;99.90;;;;;;4172282;28;20122;-66
2023/11/13 08:27:33;;;;;;;14.15;4.25;;;9.80;99.90;;;;;;4173253;28;20036;-66
2023/11/13 08:29:34;;;;;;;10.60;4.20;;;9.80;99.90;;;;;;4188582;28;20094;-65
2023/11/13 08:31:35;;;;;;;10.07;3.85;;;9.90;99.90;;;;;;4168911;28;20037;-66
2023/11/13 08:33:35;;;;;;;8.55;4.10;;;9.90;99.90;;;;;;4173969;28;20037;-66
2023/11/13 08:35:37;;;;;;;11.73;4.13;;;9.90;99.90;;;;;;4169934;28;20565;-65
2023/11/13 08:37:38;;;;;;;8.15;3.20;;;9.90;99.90;;;;;;4173948;28;20063;-65
2023/11/13 08:39:39;;;;;;;10.30;3.97;;;9.90;99.90;;;;;;4172294;28;20706;-65
2023/11/13 08:41:40;;;;;;;8.18;3.90;;;9.90;99.90;;;;;;4170167;28;20103;-65
2023/11/13 08:43:44;;;;;;;7.28;3.35;;;9.90;99.90;;;;;;4173200;28;20629;-66
2023/11/13 08:45:45;;;;;;;9.40;3.03;;;10.00;99.90;;;;;;4170485;28;20657;-67
2023/11/13 08:47:50;;;;;;;10.00;3.58;;;10.00;99.90;;;;;;4188517;28;20082;-65
2023/11/13 08:49:52;;;;;;;7.72;2.90;;;10.00;99.90;;;;;;4172518;28;20472;-65
2023/11/13 08:51:52;;;;;;;9.70;3.78;;;10.00;99.90;;;;;;4172107;28;20461;-65
2023/11/13 08:53:54;;;;;;;11.93;3.58;;;10.10;99.90;;;;;;4171610;28;20138;-65
2023/11/13 08:55:56;;;;;;;9.25;3.35;;;10.10;99.90;;;;;;4170681;28;20584;-65
2023/11/13 08:57:57;;;;;;;;;;;10.10;99.90;;;;;;4170088;28;20037;-69
2023/11/13 08:59:57;;;;;;;11.30;3.33;;;10.10;99.90;;;;;;4172239;28;19913;-71
2023/11/13 09:01:58;;;;;;;8.50;2.70;;;10.10;99.90;;;;;;4171623;28;20116;-70
2023/11/13 09:03:59;;;;;;;10.43;3.20;;;10.10;99.90;;;;;;4175294;28;20041;-70
2023/11/13 09:06:08;;;;;;;8.25;2.67;;;10.20;99.90;;;;;;4170040;28;20040;-71
2023/11/13 09:08:09;;;;;;;9.18;2.83;;;10.20;99.90;;;;;;4174073;28;20536;-69
2023/11/13 09:10:10;;;;;;;9.27;2.47;;;10.20;99.90;;;;;;4174122;28;20036;-69
2023/11/13 09:12:12;;;;;;;9.05;2.65;;;10.20;99.90;;;;;;4175019;28;20107;-69
2023/11/13 09:14:17;;;;;;;6.13;2.83;;;10.20;99.90;;;;;;4175199;28;20041;-69
2023/11/13 09:16:19;;;;;;;6.82;2.90;;;10.30;99.90;;;;;;4171467;28;22736;-70
2023/11/13 09:18:23;;;;;;;9.38;3.60;;;10.30;99.90;;;;;;4175466;28;20544;-70
2023/11/13 09:20:24;;;;;;;10.07;3.08;;;10.30;99.90;;;;;;4168111;28;20041;-70
2023/11/13 09:22:25;;;;;;;12.53;4.23;;;10.30;99.90;;;;;;4173948;28;20036;-70
2023/11/13 09:24:26;;;;;;;9.18;3.10;;;10.30;99.90;;;;;;4173232;28;20033;-70
2023/11/13 09:26:27;;;;;;;8.73;2.85;;;10.30;99.90;;;;;;4171323;28;20067;-69
2023/11/13 09:28:27;;;;;;;10.18;2.97;;;10.30;99.90;;;;;;4173342;28;20025;-69
2023/11/13 09:30:30;;;;;;;6.95;2.60;;;10.30;99.90;;;;;;4169262;28;20044;-71
2023/11/13 09:32:31;;;;;;;10.23;3.22;;;10.40;99.90;;;;;;4172861;28;20496;-69
2023/11/13 09:34:31;;;;;;;9.43;2.78;;;10.40;99.90;;;;;;4173239;28;20037;-69
2023/11/13 09:36:33;;;;;;;9.85;3.10;;;10.40;99.90;;;;;;4172165;28;20037;-69
2023/11/13 09:38:34;;;;;;;8.27;2.72;;;10.40;99.90;;;;;;4171477;28;20032;-69
2023/11/13 09:40:34;;;;;;;5.32;2.80;;;10.40;99.90;;;;;;4172968;28;20040;-68
2023/11/13 09:42:36;;;;;;;8.07;2.97;;;10.40;99.90;;;;;;4174131;28;20477;-69
2023/11/13 09:44:37;;;;;;;10.35;2.83;;;10.40;99.90;;;;;;4173808;28;20036;-69
2023/11/13 09:46:41;;;;;;;5.85;2.33;;;10.40;99.90;;;;;;4168167;28;20029;-69
2023/11/13 09:49:06;;;;;;;6.20;2.40;;;10.40;99.90;;;;;;4174380;28;20041;-69
2023/11/13 09:51:08;;;;;;;9.30;2.25;;;10.40;99.90;;;;;;4168381;28;20064;-70
2023/11/13 09:53:15;;;;;;;6.28;2.40;;;10.40;99.90;;;;;;4172730;28;20517;-70
2023/11/13 09:55:23;;;;;;;7.13;2.90;;;10.40;99.90;;;;;;4172233;28;20055;-71
2023/11/13 09:57:25;;;;;;;8.15;2.40;;;10.40;99.90;;;;;;4171408;28;20052;-70
2023/11/13 09:59:34;;;;;;;7.82;2.50;;;10.40;99.90;;;;;;4173517;28;20033;-70
2023/11/13 10:01:35;;;;;;;6.63;1.98;;;10.40;99.90;;;;;;4169256;28;20611;-70
2023/11/13 10:03:36;;;;;;;7.57;2.10;;;10.40;99.90;;;;;;4174253;28;20492;-70
2023/11/13 10:05:39;;;;;;;3.92;1.70;;;10.40;99.90;;;;;;4173022;28;20479;-70
2023/11/13 10:07:47;;;;;;;6.97;1.98;;;10.40;99.90;;;;;;4172992;28;20033;-72
2023/11/13 10:10:05;;;;;;;3.97;1.55;;;10.40;99.90;;;;;;4172302;28;20497;-73
2023/11/13 10:12:09;;;;;;;6.93;2.08;;;10.50;99.90;;;;;;4170081;28;20029;-73
2023/11/13 10:14:13;;;;;;;5.45;2.15;;;10.40;99.90;;;;;;4173973;28;20053;-73
2023/11/13 10:16:18;;;;;;;5.53;1.88;;;10.40;99.90;;;;;;4169916;28;20091;-72
2023/11/13 10:18:25;;;;;;;4.13;1.60;;;10.50;99.90;;;;;;4171309;28;20041;-73
2023/11/13 10:20:26;;;;;;;3.45;1.58;;;10.40;99.90;;;;;;4171063;28;20029;-73
2023/11/13 10:22:27;;;;;;;4.45;1.70;;;10.50;99.90;;;;;;4172589;28;20124;-73
2023/11/13 10:24:28;;;;;;;5.00;2.05;;;10.50;99.90;;;;;;4173336;28;20068;-73
2023/11/13 10:26:28;;;;;;;5.80;2.05;;;10.40;99.90;;;;;;4167142;28;20029;-72
2023/11/13 10:28:37;;;;;;;7.25;2.33;;;10.40;99.90;;;;;;4168841;28;20033;-72
2023/11/13 10:30:58;;;;;;;4.28;1.65;;;10.50;99.90;;;;;;4162521;28;20033;-72
2023/11/13 10:33:14;;;;;;;6.63;2.10;;;10.50;99.90;;;;;;4168618;28;20045;-72
2023/11/13 10:35:35;;;;;;;3.38;1.55;;;10.50;99.90;;;;;;4171421;28;20401;-73
2023/11/13 10:37:36;;;;;;;4.10;1.77;;;10.50;99.90;;;;;;4165598;28;20048;-72